createdAt,value
2023-06-30T00:01:49.557Z,1.97
2023-06-30T00:04:19.036Z,1.70
2023-06-30T00:06:51.505Z,2.07
2023-06-30T00:09:20.992Z,2.03
2023-06-30T00:11:51.476Z,2.10
2023-06-30T00:14:21.763Z,2.10
2023-06-30T00:16:50.815Z,3.60
2023-06-30T00:19:20.966Z,4.00
2023-06-30T00:21:53.230Z,3.80
2023-06-30T00:24:21.884Z,3.77
2023-06-30T00:26:51.562Z,3.70
2023-06-30T00:29:21.703Z,3.57
2023-06-30T00:31:50.307Z,3.53
2023-06-30T00:34:18.983Z,3.43
2023-06-30T00:36:47.578Z,3.30
2023-06-30T00:39:16.213Z,3.93
2023-06-30T00:41:44.850Z,2.53
2023-06-30T00:44:13.456Z,2.50
2023-06-30T00:46:43.695Z,2.60
2023-06-30T00:49:12.404Z,2.53
2023-06-30T00:51:41.466Z,2.30
2023-06-30T00:54:10.252Z,2.30
2023-06-30T00:56:38.880Z,2.20
2023-06-30T00:59:07.496Z,2.47
2023-06-30T01:01:40.128Z,2.43
2023-06-30T01:04:12.481Z,1.90
2023-06-30T01:06:43.091Z,1.97
2023-06-30T01:09:13.197Z,2.10
2023-06-30T01:11:42.289Z,2.17
2023-06-30T01:14:11.771Z,2.33
2023-06-30T01:16:42.312Z,2.07
2023-06-30T01:19:17.771Z,2.10
2023-06-30T01:21:47.844Z,2.10
2023-06-30T01:24:19.305Z,2.27
2023-06-30T01:26:50.672Z,2.30
2023-06-30T01:29:19.597Z,2.23
2023-06-30T01:31:48.443Z,2.87
2023-06-30T01:34:18.407Z,2.40
2023-06-30T01:36:47.020Z,2.37
2023-06-30T01:39:16.666Z,2.33
2023-06-30T01:41:45.456Z,2.50
2023-06-30T01:44:14.352Z,2.43
2023-06-30T01:46:43.238Z,3.20
2023-06-30T01:49:13.521Z,2.53
2023-06-30T01:51:43.564Z,2.80
2023-06-30T01:54:12.225Z,2.40
2023-06-30T01:56:40.877Z,3.00
2023-06-30T01:59:09.490Z,3.80
2023-06-30T02:01:38.182Z,3.27
2023-06-30T02:04:06.839Z,3.27
2023-06-30T02:06:35.772Z,3.30
2023-06-30T02:09:06.003Z,3.73
2023-06-30T02:11:34.666Z,3.70
2023-06-30T02:14:03.331Z,3.60
2023-06-30T02:16:32.000Z,4.17
2023-06-30T02:19:00.662Z,4.17
2023-06-30T02:21:29.276Z,4.13
2023-06-30T02:23:57.930Z,3.37
2023-06-30T02:26:27.909Z,3.83
2023-06-30T02:28:56.529Z,5.10
2023-06-30T02:31:26.343Z,3.70
2023-06-30T02:33:55.323Z,3.97
2023-06-30T02:36:23.970Z,5.03
2023-06-30T02:38:52.579Z,3.93
2023-06-30T02:41:21.230Z,4.23
2023-06-30T02:43:51.217Z,3.93
2023-06-30T02:46:19.917Z,5.47
2023-06-30T02:48:48.594Z,5.53
2023-06-30T02:51:17.224Z,4.63
2023-06-30T02:53:45.865Z,5.70
2023-06-30T02:56:14.482Z,6.07
2023-06-30T02:58:43.159Z,6.63
2023-06-30T03:01:13.293Z,5.70
2023-06-30T03:03:43.418Z,7.37
2023-06-30T03:06:12.113Z,5.27
2023-06-30T03:08:40.727Z,5.90
2023-06-30T03:11:09.323Z,6.37
2023-06-30T03:13:38.005Z,6.17
2023-06-30T03:16:07.042Z,7.23
2023-06-30T03:18:37.031Z,6.63
2023-06-30T03:21:06.071Z,5.27
2023-06-30T03:23:34.793Z,4.00
2023-06-30T03:26:03.657Z,5.20
2023-06-30T03:28:32.267Z,4.77
2023-06-30T03:31:00.924Z,4.93
2023-06-30T03:33:31.082Z,4.40
2023-06-30T03:36:01.161Z,5.97
2023-06-30T03:38:29.833Z,4.23
2023-06-30T03:40:58.495Z,6.13
2023-06-30T03:43:27.280Z,4.10
2023-06-30T03:45:55.895Z,4.50
2023-06-30T03:48:24.592Z,4.90
2023-06-30T03:50:55.379Z,4.97
2023-06-30T03:53:25.448Z,5.10
2023-06-30T03:55:54.080Z,4.97
2023-06-30T03:58:22.706Z,4.00
2023-06-30T04:00:51.348Z,5.07
2023-06-30T04:03:20.227Z,3.60
2023-06-30T04:05:49.011Z,3.50
2023-06-30T04:08:17.757Z,4.37
2023-06-30T04:10:47.885Z,3.93
2023-06-30T04:13:16.540Z,4.93
2023-06-30T04:15:45.649Z,4.70
2023-06-30T04:18:14.529Z,4.33
2023-06-30T04:20:43.175Z,5.67
2023-06-30T04:23:11.835Z,3.73
2023-06-30T04:25:40.455Z,4.67
2023-06-30T04:28:10.454Z,5.10
2023-06-30T04:30:39.113Z,4.97
2023-06-30T04:33:07.786Z,4.00
2023-06-30T04:35:36.504Z,5.23
2023-06-30T04:38:05.197Z,3.97
2023-06-30T04:40:33.804Z,4.10
2023-06-30T04:43:03.353Z,4.67
2023-06-30T04:45:33.514Z,4.93
2023-06-30T04:48:02.335Z,5.23
2023-06-30T04:50:30.992Z,5.47
2023-06-30T04:52:59.603Z,5.60
2023-06-30T04:55:28.223Z,3.50
2023-06-30T04:57:57.535Z,3.20
2023-06-30T05:00:26.142Z,3.77
2023-06-30T05:02:57.334Z,4.20
2023-06-30T05:05:26.087Z,4.00
2023-06-30T05:07:54.779Z,4.00
2023-06-30T05:10:23.406Z,4.30
2023-06-30T05:12:52.023Z,3.97
2023-06-30T05:15:20.742Z,3.40
2023-06-30T05:17:49.379Z,5.17
2023-06-30T05:20:19.383Z,5.23
2023-06-30T05:22:48.017Z,3.07
2023-06-30T05:25:16.656Z,4.23
2023-06-30T05:27:45.328Z,3.97
2023-06-30T05:30:14.569Z,3.37
2023-06-30T05:32:43.281Z,4.43
2023-06-30T05:35:12.647Z,3.47
2023-06-30T05:37:42.678Z,3.23
2023-06-30T05:40:11.648Z,4.00
2023-06-30T05:42:40.266Z,4.00
2023-06-30T05:45:09.308Z,3.73
2023-06-30T05:47:38.869Z,4.30
2023-06-30T05:50:08.051Z,4.90
2023-06-30T05:52:36.749Z,3.93
2023-06-30T05:55:07.411Z,3.50
2023-06-30T05:57:36.098Z,3.07
2023-06-30T06:00:05.848Z,3.63
2023-06-30T06:02:34.509Z,3.30
2023-06-30T06:05:03.286Z,4.60
2023-06-30T06:07:32.017Z,4.53
2023-06-30T06:10:00.690Z,3.30
2023-06-30T06:12:30.759Z,4.20
2023-06-30T06:14:59.381Z,4.07
2023-06-30T06:17:28.056Z,3.37
2023-06-30T06:19:56.731Z,4.00
2023-06-30T06:22:25.554Z,5.40
2023-06-30T06:24:54.211Z,4.37
2023-06-30T06:27:22.789Z,4.20
2023-06-30T06:29:52.769Z,3.67
2023-06-30T06:32:21.394Z,3.70
2023-06-30T06:34:50.012Z,4.17
2023-06-30T06:37:18.667Z,3.53
2023-06-30T06:39:47.279Z,3.33
2023-06-30T06:42:15.901Z,3.73
2023-06-30T06:44:45.601Z,3.67
2023-06-30T06:47:32.914Z,4.23
2023-06-30T06:50:03.874Z,3.53
2023-06-30T06:52:32.513Z,3.10
2023-06-30T06:55:01.171Z,4.77
2023-06-30T06:57:29.774Z,4.30
2023-06-30T07:00:02.664Z,3.03
2023-06-30T07:02:32.520Z,2.43
2023-06-30T07:05:02.568Z,3.63
2023-06-30T07:07:33.512Z,3.33
2023-06-30T07:10:02.701Z,2.10
2023-06-30T07:12:31.319Z,2.20
2023-06-30T07:14:59.954Z,2.10
2023-06-30T07:17:28.654Z,5.90
2023-06-30T07:19:57.249Z,1.93
2023-06-30T07:22:27.217Z,2.17
2023-06-30T07:24:55.810Z,2.73
2023-06-30T07:27:24.417Z,3.00
2023-06-30T07:29:53.064Z,2.47
2023-06-30T07:32:21.712Z,3.43
2023-06-30T07:34:50.419Z,2.03
2023-06-30T07:37:19.038Z,2.20
2023-06-30T07:39:49.036Z,2.10
2023-06-30T07:42:17.638Z,2.63
2023-06-30T07:44:46.259Z,1.60
2023-06-30T07:47:14.992Z,1.70
2023-06-30T07:49:43.659Z,2.60
2023-06-30T07:52:12.314Z,1.57
2023-06-30T07:54:43.007Z,2.77
2023-06-30T07:57:12.995Z,1.80
2023-06-30T07:59:41.588Z,1.97
2023-06-30T08:02:10.252Z,1.10
2023-06-30T08:04:42.113Z,4.03
2023-06-30T08:07:10.939Z,1.57
2023-06-30T08:09:39.664Z,1.60
2023-06-30T08:12:08.582Z,1.50
2023-06-30T08:14:38.578Z,2.97
2023-06-30T08:17:07.306Z,1.63
2023-06-30T08:19:47.774Z,1.73
2023-06-30T08:22:19.301Z,2.77
2023-06-30T08:24:48.071Z,1.80
2023-06-30T08:27:17.440Z,2.43
2023-06-30T08:29:47.435Z,2.50
2023-06-30T08:32:16.385Z,1.03
2023-06-30T08:34:45.058Z,1.77
2023-06-30T08:37:13.920Z,2.97
2023-06-30T08:39:42.529Z,2.00
2023-06-30T08:42:12.084Z,1.10
2023-06-30T08:44:44.652Z,1.90
2023-06-30T08:47:16.724Z,1.87
2023-06-30T08:49:45.418Z,1.30
2023-06-30T08:52:15.785Z,4.07
2023-06-30T08:54:44.831Z,1.53
2023-06-30T08:57:16.243Z,1.90
2023-06-30T08:59:44.950Z,2.50
2023-06-30T09:02:15.506Z,1.17
2023-06-30T09:04:44.369Z,1.33
2023-06-30T09:07:18.191Z,1.20
2023-06-30T09:09:47.824Z,1.23
2023-06-30T09:12:16.959Z,1.60
2023-06-30T09:14:48.143Z,1.27
2023-06-30T09:17:20.324Z,1.93
2023-06-30T09:19:49.446Z,1.60
2023-06-30T09:22:53.374Z,2.53
2023-06-30T09:25:07.029Z,1.07
2023-06-30T09:27:37.010Z,1.60
2023-06-30T09:30:06.093Z,1.97
2023-06-30T09:32:36.196Z,1.30
2023-06-30T09:35:08.505Z,1.77
2023-06-30T09:37:43.521Z,2.73
2023-06-30T09:40:14.054Z,0.87
2023-06-30T09:42:44.220Z,1.13
2023-06-30T09:45:13.917Z,1.10
2023-06-30T09:47:43.941Z,2.23
2023-06-30T09:50:13.249Z,1.23
2023-06-30T09:52:43.546Z,1.30
2023-06-30T09:55:12.508Z,1.83
2023-06-30T09:57:44.609Z,1.20
2023-06-30T10:00:29.754Z,1.40
2023-06-30T10:03:09.848Z,1.40
2023-06-30T10:05:38.785Z,1.30
2023-06-30T10:08:08.327Z,1.13
2023-06-30T10:10:37.017Z,1.20
2023-06-30T10:13:06.224Z,1.63
2023-06-30T10:15:35.038Z,2.60
2023-06-30T10:18:04.844Z,1.02
2023-06-30T10:20:46.927Z,2.20
2023-06-30T10:23:17.012Z,1.40
2023-06-30T10:25:46.138Z,1.30
2023-06-30T10:28:15.198Z,1.77
2023-06-30T10:30:44.244Z,1.77
2023-06-30T10:33:13.122Z,0.93
2023-06-30T10:35:45.142Z,1.23
2023-06-30T10:38:14.579Z,1.47
2023-06-30T10:40:43.630Z,1.88
2023-06-30T10:43:14.591Z,1.30
2023-06-30T10:45:58.116Z,1.05
2023-06-30T10:48:29.627Z,1.85
2023-06-30T10:50:59.622Z,1.58
2023-06-30T10:53:29.265Z,2.33
2023-06-30T10:55:58.256Z,1.35
2023-06-30T10:58:27.524Z,1.67
2023-06-30T11:01:05.777Z,1.75
2023-06-30T11:03:49.518Z,1.88
2023-06-30T11:06:21.154Z,2.17
2023-06-30T11:09:01.798Z,1.98
2023-06-30T11:11:30.508Z,1.80
2023-06-30T11:14:06.366Z,1.73
2023-06-30T11:17:02.597Z,1.70
2023-06-30T11:19:32.647Z,1.90
2023-06-30T11:22:20.055Z,1.45
2023-06-30T11:24:48.699Z,2.28
2023-06-30T11:27:17.569Z,1.02
2023-06-30T11:29:46.580Z,1.10
2023-06-30T11:32:18.079Z,1.80
2023-06-30T11:34:48.448Z,1.15
2023-06-30T11:37:17.093Z,1.40
2023-06-30T11:39:52.641Z,1.88
2023-06-30T11:42:21.393Z,1.17
2023-06-30T11:44:51.144Z,1.20
2023-06-30T11:47:22.348Z,0.95
2023-06-30T11:49:52.505Z,1.98
2023-06-30T11:52:21.641Z,1.80
2023-06-30T11:54:50.356Z,1.42
2023-06-30T11:57:19.039Z,1.33
2023-06-30T11:59:47.667Z,2.28
2023-06-30T12:02:16.402Z,1.40
2023-06-30T12:04:49.108Z,2.03
2023-06-30T12:07:19.428Z,1.27
2023-06-30T12:10:01.278Z,1.83
2023-06-30T12:12:31.028Z,1.52
2023-06-30T12:14:59.670Z,1.75
2023-06-30T12:17:30.002Z,1.45
2023-06-30T12:19:58.794Z,1.20
2023-06-30T12:22:31.220Z,1.80
2023-06-30T12:25:00.671Z,1.63
2023-06-30T12:27:29.472Z,1.40
2023-06-30T12:29:58.110Z,2.08
2023-06-30T12:32:29.522Z,1.30
2023-06-30T12:35:06.105Z,1.40
2023-06-30T12:37:37.207Z,2.13
2023-06-30T12:40:07.549Z,1.88
2023-06-30T12:42:36.478Z,1.88
2023-06-30T12:45:06.551Z,1.75
2023-06-30T12:47:36.144Z,1.88
2023-06-30T12:50:04.852Z,1.73
2023-06-30T12:52:33.537Z,1.90
2023-06-30T12:55:04.104Z,1.95
2023-06-30T12:57:32.718Z,1.73
2023-06-30T13:00:01.480Z,1.50
2023-06-30T13:02:30.468Z,1.15
2023-06-30T13:04:59.168Z,1.92
2023-06-30T13:07:27.835Z,2.05
2023-06-30T13:09:56.493Z,1.52
2023-06-30T13:12:27.403Z,1.67
2023-06-30T13:14:56.212Z,1.75
2023-06-30T13:17:24.981Z,1.58
2023-06-30T13:19:53.737Z,1.52
2023-06-30T13:22:22.530Z,1.42
2023-06-30T13:24:51.173Z,2.08
2023-06-30T13:27:19.811Z,1.40
2023-06-30T13:29:50.633Z,1.60
2023-06-30T13:32:19.359Z,2.05
2023-06-30T13:34:48.597Z,1.23
2023-06-30T13:37:17.419Z,2.03
2023-06-30T13:39:46.073Z,2.33
2023-06-30T13:42:14.734Z,1.38
2023-06-30T13:44:43.367Z,1.35
2023-06-30T13:47:13.365Z,2.13
2023-06-30T13:49:42.008Z,2.05
2023-06-30T13:52:10.727Z,2.33
2023-06-30T13:54:39.438Z,1.75
2023-06-30T13:57:08.385Z,2.20
2023-06-30T13:59:37.179Z,1.33
2023-06-30T14:02:05.785Z,2.23
2023-06-30T14:04:35.850Z,1.65
2023-06-30T14:07:05.461Z,1.15
2023-06-30T14:09:34.133Z,1.65
2023-06-30T14:12:02.775Z,2.85
2023-06-30T14:14:31.407Z,1.92
2023-06-30T14:17:00.052Z,2.10
2023-06-30T14:19:29.998Z,1.50
2023-06-30T14:22:00.050Z,1.83
2023-06-30T14:24:28.655Z,2.77
2023-06-30T14:26:57.265Z,2.03
2023-06-30T14:29:25.930Z,1.30
2023-06-30T14:31:54.665Z,2.58
2023-06-30T14:34:23.308Z,1.77
2023-06-30T14:36:51.941Z,2.40
2023-06-30T14:39:21.907Z,2.17
2023-06-30T14:42:01.359Z,1.50
2023-06-30T14:44:30.927Z,2.13
2023-06-30T14:47:01.143Z,2.23
2023-06-30T14:49:29.818Z,1.87
2023-06-30T14:51:58.559Z,1.20
2023-06-30T14:54:28.547Z,2.20
2023-06-30T14:56:57.198Z,1.40
2023-06-30T14:59:25.816Z,1.50
2023-06-30T15:01:54.530Z,2.27
2023-06-30T15:04:23.213Z,1.63
2023-06-30T15:06:51.850Z,1.20
2023-06-30T15:09:20.789Z,1.40
2023-06-30T15:11:51.112Z,1.30
2023-06-30T15:14:19.722Z,1.67
2023-06-30T15:16:48.365Z,1.67
2023-06-30T15:19:16.995Z,2.37
2023-06-30T15:21:45.658Z,1.23
2023-06-30T15:24:14.291Z,1.43
2023-06-30T15:26:42.957Z,1.60
2023-06-30T15:29:13.179Z,1.37
2023-06-30T15:31:42.636Z,1.20
2023-06-30T15:34:11.277Z,2.00
2023-06-30T15:36:39.913Z,1.67
2023-06-30T15:39:08.588Z,1.93
2023-06-30T15:41:37.329Z,1.40
2023-06-30T15:44:06.068Z,2.03
2023-06-30T15:46:36.170Z,2.07
2023-06-30T15:49:05.721Z,1.40
2023-06-30T15:51:34.667Z,2.17
2023-06-30T15:54:03.335Z,1.60
2023-06-30T15:56:31.948Z,1.37
2023-06-30T15:59:01.231Z,1.20
2023-06-30T16:01:29.929Z,1.60
2023-06-30T16:03:59.994Z,1.57
2023-06-30T16:06:28.770Z,2.10
2023-06-30T16:08:57.469Z,1.93
2023-06-30T16:11:26.105Z,2.30
2023-06-30T16:13:54.734Z,2.13
2023-06-30T16:16:23.445Z,1.83
2023-06-30T16:18:52.731Z,1.33
2023-06-30T16:21:22.827Z,1.67
2023-06-30T16:23:51.706Z,1.43
2023-06-30T16:26:21.416Z,1.60
2023-06-30T16:28:50.445Z,1.40
2023-06-30T16:31:19.204Z,1.83
2023-06-30T16:33:47.933Z,1.30
2023-06-30T16:36:16.691Z,1.73
2023-06-30T16:38:46.624Z,1.73
2023-06-30T16:41:15.284Z,1.90
2023-06-30T16:43:43.960Z,1.83
2023-06-30T16:46:12.633Z,1.67
2023-06-30T16:48:41.246Z,1.27
2023-06-30T16:51:10.028Z,2.50
2023-06-30T16:53:38.704Z,2.37
2023-06-30T16:56:08.931Z,1.80
2023-06-30T16:58:37.520Z,1.67
2023-06-30T17:01:06.264Z,1.40
2023-06-30T17:03:34.960Z,1.30
2023-06-30T17:06:04.104Z,2.07
2023-06-30T17:08:32.820Z,1.60
2023-06-30T17:11:01.439Z,1.40
2023-06-30T17:13:31.516Z,1.80
2023-06-30T17:16:00.167Z,3.57
2023-06-30T17:18:28.799Z,1.60
2023-06-30T17:20:59.004Z,1.90
2023-06-30T17:23:28.037Z,2.20
2023-06-30T17:25:56.719Z,1.37
2023-06-30T17:28:25.340Z,2.80
2023-06-30T17:30:56.232Z,1.60
2023-06-30T17:33:24.926Z,1.60
2023-06-30T17:35:53.663Z,1.60
2023-06-30T17:38:22.299Z,1.73
2023-06-30T17:40:50.933Z,2.40
2023-06-30T17:43:19.582Z,1.30
2023-06-30T17:45:48.259Z,2.47
2023-06-30T17:48:18.382Z,1.40
2023-06-30T17:50:46.992Z,2.10
2023-06-30T17:53:15.801Z,2.50
2023-06-30T17:55:45.372Z,2.70
2023-06-30T17:58:14.224Z,1.60
2023-06-30T18:00:42.795Z,1.47
2023-06-30T18:03:11.540Z,2.40
2023-06-30T18:05:42.620Z,2.20
2023-06-30T18:08:11.644Z,1.87
2023-06-30T18:10:41.846Z,1.30
2023-06-30T18:13:10.731Z,1.30
2023-06-30T18:15:39.320Z,1.80
2023-06-30T18:18:08.088Z,2.03
2023-06-30T18:20:36.718Z,2.37
2023-06-30T18:23:06.686Z,1.83
2023-06-30T18:25:35.445Z,1.53
2023-06-30T18:28:04.050Z,1.47
2023-06-30T18:30:32.632Z,1.80
2023-06-30T18:33:01.905Z,1.30
2023-06-30T18:35:30.745Z,1.93
2023-06-30T18:37:59.347Z,1.23
2023-06-30T18:40:29.348Z,1.90
2023-06-30T18:42:57.998Z,1.57
2023-06-30T18:45:26.620Z,1.60
2023-06-30T18:47:55.256Z,1.20
2023-06-30T18:50:24.762Z,1.50
2023-06-30T18:52:53.399Z,2.27
2023-06-30T18:55:22.084Z,1.50
2023-06-30T18:57:52.115Z,1.50
2023-06-30T19:00:21.060Z,1.43
2023-06-30T19:02:49.721Z,1.47
2023-06-30T19:05:18.415Z,1.77
2023-06-30T19:07:47.071Z,1.47
2023-06-30T19:10:15.679Z,2.33
2023-06-30T19:12:44.358Z,1.50
2023-06-30T19:15:15.141Z,1.60
2023-06-30T19:17:45.177Z,1.30
2023-06-30T19:20:14.180Z,1.43
2023-06-30T19:22:42.787Z,2.70
2023-06-30T19:25:11.752Z,1.33
2023-06-30T19:27:40.376Z,2.83
2023-06-30T19:30:09.552Z,1.30
2023-06-30T19:32:39.589Z,2.03
2023-06-30T19:35:08.454Z,1.97
2023-06-30T19:37:37.150Z,1.77
2023-06-30T19:40:06.096Z,1.80
2023-06-30T19:42:34.705Z,2.03
2023-06-30T19:45:04.463Z,1.80
2023-06-30T19:47:35.162Z,1.40
2023-06-30T19:50:05.429Z,1.93
2023-06-30T19:52:34.306Z,1.70
2023-06-30T19:55:03.864Z,2.43
2023-06-30T19:57:32.501Z,1.77
2023-06-30T20:00:01.202Z,1.40
2023-06-30T20:02:31.121Z,2.30
2023-06-30T20:05:02.467Z,1.70
2023-06-30T20:07:32.450Z,1.20
2023-06-30T20:10:01.063Z,2.13
2023-06-30T20:12:29.753Z,1.67
2023-06-30T20:14:59.114Z,2.70
2023-06-30T20:17:27.739Z,1.50
2023-06-30T20:19:56.346Z,1.70
2023-06-30T20:22:24.993Z,1.90
2023-06-30T20:24:55.053Z,2.27
2023-06-30T20:27:23.671Z,1.80
2023-06-30T20:29:52.583Z,1.77
2023-06-30T20:32:21.197Z,1.93
2023-06-30T20:34:49.826Z,1.40
2023-06-30T20:37:18.428Z,1.70
2023-06-30T20:39:47.087Z,1.67
2023-06-30T20:42:17.267Z,2.27
2023-06-30T20:44:45.928Z,2.57
2023-06-30T20:47:14.930Z,1.90
2023-06-30T20:49:43.563Z,1.87
2023-06-30T20:52:12.194Z,2.63
2023-06-30T20:54:40.926Z,2.60
2023-06-30T20:57:09.708Z,2.43
2023-06-30T20:59:39.683Z,3.13
2023-06-30T21:02:08.833Z,2.57
2023-06-30T21:04:37.622Z,2.10
2023-06-30T21:07:06.577Z,1.60
2023-06-30T21:09:36.561Z,2.67
2023-06-30T21:12:05.711Z,2.00
2023-06-30T21:14:34.373Z,2.60
2023-06-30T21:17:04.500Z,1.70
2023-06-30T21:19:33.229Z,2.47
2023-06-30T21:22:03.161Z,2.27
2023-06-30T21:24:32.096Z,1.90
2023-06-30T21:27:01.896Z,2.43
2023-06-30T21:29:30.543Z,2.10
2023-06-30T21:31:59.178Z,2.83
2023-06-30T21:34:29.256Z,1.40
2023-06-30T21:36:57.903Z,1.57
2023-06-30T21:39:26.642Z,1.80
2023-06-30T21:41:55.299Z,1.90
2023-06-30T21:44:23.912Z,2.60
2023-06-30T21:46:52.527Z,1.70
2023-06-30T21:49:21.146Z,1.60
2023-06-30T21:51:51.139Z,1.43
2023-06-30T21:54:27.110Z,1.77
2023-06-30T21:57:05.066Z,1.73
2023-06-30T21:59:33.691Z,1.60
2023-06-30T22:02:02.400Z,1.50
2023-06-30T22:04:31.078Z,1.50
2023-06-30T22:07:01.110Z,1.40
2023-06-30T22:09:29.710Z,2.10
2023-06-30T22:11:58.478Z,1.40
2023-06-30T22:14:27.105Z,1.67
2023-06-30T22:16:55.732Z,2.70
2023-06-30T22:19:24.407Z,1.60
2023-06-30T22:21:53.093Z,1.30
2023-06-30T22:24:23.090Z,2.67
2023-06-30T22:26:51.715Z,1.63
2023-06-30T22:29:20.352Z,2.83
2023-06-30T22:31:49.313Z,1.47
2023-06-30T22:34:18.031Z,1.40
2023-06-30T22:36:46.673Z,1.63
2023-06-30T22:39:15.374Z,1.33
2023-06-30T22:41:45.352Z,1.50
2023-06-30T22:44:13.984Z,1.53
2023-06-30T22:46:42.731Z,2.07
2023-06-30T22:49:11.367Z,1.90
2023-06-30T22:51:40.000Z,1.50
2023-06-30T22:54:08.631Z,1.37
2023-06-30T22:56:37.250Z,2.27
2023-06-30T22:59:07.224Z,1.33
2023-06-30T23:01:35.848Z,1.30
2023-06-30T23:04:04.620Z,1.40
2023-06-30T23:06:33.385Z,1.20
2023-06-30T23:09:02.789Z,1.40
2023-06-30T23:11:31.421Z,1.40
2023-06-30T23:14:00.130Z,2.00
2023-06-30T23:16:30.174Z,1.23
2023-06-30T23:18:59.208Z,1.73
2023-06-30T23:21:28.884Z,2.13
2023-06-30T23:23:57.540Z,2.40
2023-06-30T23:26:26.196Z,1.40
2023-06-30T23:28:56.023Z,1.40
2023-06-30T23:31:24.717Z,1.80
2023-06-30T23:33:54.814Z,1.50
2023-06-30T23:36:23.424Z,2.23
2023-06-30T23:38:52.536Z,2.03
2023-06-30T23:41:21.143Z,1.33
2023-06-30T23:43:49.806Z,1.30
2023-06-30T23:46:19.983Z,1.53
2023-06-30T23:48:49.146Z,1.70
2023-06-30T23:51:19.272Z,2.43
2023-06-30T23:53:47.912Z,1.77
2023-06-30T23:56:16.516Z,1.30
2023-06-30T23:58:45.156Z,1.83
